Terminal Aerodrome Forecast
Issued by NWS

Home | Current Version | Previous Version | Text Only | Print | Product List | Glossary On
Versions: 1 2 3 4 5 6 7 8 9 10 11 12 13 14 15 16 17 18
000
FTUS46 KLOX 261126
TAFWJF
TAF
KWJF 261126Z 2612/2712 24021G28KT P6SM SKC
     FM261400 23020G30KT P6SM SKC
     FM261900 23025G35KT 6SM BLDU SKC
     FM270300 24020G30KT 6SM BLDU SKC
     FM270900 24015G22KT P6SM SKC=

USA.gov is the U.S. government's official web portal to all federal, state and local government web resources and services.